• Join FlightAware (Why Join?)
  • Login
  • US Flag 
Trick or treat! (Boo!!) 
10:45PM EDT


 

Airport Tracker/Info


-or-


 

Live Flight TrackerFlight Track Log ✈ ASQ6041 ✈ 23-Apr-2013 ✈ KBHM - KORD

Flight Track Log - Related Links

Times and Time Zones

All times are in EDT time to prevent confusion due to time zone crossing. See the ASQ6041 flight status page for this flight to view local times or setup timezone preferences in your user account.

Time Position Orientation Groundspeed Altitude Reporting Facility
EDT Latitude Longitude Course Direction KTS MPH feet Rate Location/Type
07:01AM 33.5683 -86.7464 44° Northeast 152 175 1,400  Level Atlanta Center
07:02AM 33.6283 -86.6758 44° Northeast 225 259 4,400 2,040 Climbing Atlanta Center
07:03AM 33.6817 -86.6150 43° Northeast 251 289 6,800 2,580 Climbing Atlanta Center
07:04AM 33.7394 -86.5544 41° Northeast 262 302 9,600 2,100 Climbing Atlanta Center
07:05AM 33.7992 -86.4861 44° Northeast 274 315 11,100 1,320 Climbing Atlanta Center
07:06AM 33.8694 -86.4081 43° Northeast 306 352 12,300 1,500 Climbing Atlanta Center
07:07AM 33.9400 -86.3250 44° Northeast 331 381 14,100 1,800 Climbing Atlanta Center
07:08AM 34.0144 -86.2442 42° Northeast 350 403 15,900 1,800 Climbing Atlanta Center
07:09AM 34.0869 -86.1608 44° Northeast 350 403 17,700 1,680 Climbing Atlanta Center
07:10AM 34.1594 -86.0772 44° Northeast 355 409 19,300 1,740 Climbing Atlanta Center
07:11AM 34.2317 -85.9936 44° Northeast 355 409 21,200 2,100 Climbing Atlanta Center
07:12AM 34.3039 -85.9147 42° Northeast 355 409 23,500 1,740 Climbing Atlanta Center
07:13AM 34.3739 -85.8308 45° Northeast 350 403 24,700 1,140 Climbing Atlanta Center
07:14AM 34.4481 -85.7492 42° Northeast 356 410 25,800 1,080 Climbing Atlanta Center
07:15AM 34.5286 -85.6600 42° Northeast 368 423 26,900 1,080 Climbing Atlanta Center
07:16AM 34.6072 -85.5681 44° Northeast 378 435 28,000 1,080 Climbing Atlanta Center
07:17AM 34.6875 -85.4736 44° Northeast 389 448 29,100 1,080 Climbing Atlanta Center
07:18AM 34.7678 -85.3789 44° Northeast 389 448 30,200 1,080 Climbing Atlanta Center
07:19AM 34.8503 -85.2842 43° Northeast 394 453 31,300 1,080 Climbing Atlanta Center
07:20AM 34.9347 -85.1864 43° Northeast 406 467 32,400 1,020 Climbing Atlanta Center
07:21AM 35.0311 -85.1372 23° Northeast 389 448 33,400 780 Climbing Atlanta Center
07:22AM 35.1378 -85.1106 12° North 372 428 34,000 300 Climbing Atlanta Center
07:23AM 35.2403 -85.0839 12° North 372 428 34,000  Level Atlanta Center
07:24AM 35.3406 -85.0597 11° North 372 428 34,000  Level Atlanta Center
07:25AM 35.4431 -85.0331 12° North 372 428 34,000  Level Atlanta Center
07:26AM 35.5414 -85.0086 11° North 372 428 34,000  Level Atlanta Center
07:27AM 35.6394 -84.9842 11° North 367 422 34,000  Level Atlanta Center
07:28AM 35.7378 -84.9597 11° North 362 417 34,000  Level Atlanta Center
07:29AM 35.8547 -84.9278 12° North 369 425 34,000  Level Atlanta Center
07:30AM 35.9594 -84.9006 12° North 379 436 34,000  Level Atlanta Center
07:32AM 36.1794 -84.8433 12° North 373 429 34,000  Level Indianapolis Center
07:33AM 36.2817 -84.8172 12° North 372 428 34,000  Level Indianapolis Center
07:34AM 36.3822 -84.7906 12° North 372 428 34,000  Level Indianapolis Center
07:35AM 36.4825 -84.7619 13° North 369 425 34,000  Level Indianapolis Center
07:36AM 36.5844 -84.7319 13° North 375 432 34,000  Level Indianapolis Center
07:37AM 36.6847 -84.7022 13° North 371 427 34,000  Level Indianapolis Center
07:39AM 36.7867 -84.6731 13° North 374 430 34,000  Level Indianapolis Center
07:40AM 36.8886 -84.6425 13° North 376 433 34,000  Level Indianapolis Center
07:41AM 37.0108 -84.6069 13° North 375 432 34,000  Level Indianapolis Center
07:42AM 37.0992 -84.5794 14° North 375 432 34,000  Level Indianapolis Center
07:43AM 37.2181 -84.5442 13° North 375 432 34,000  Level Indianapolis Center
07:44AM 37.3203 -84.5128 14° North 376 433 34,000  Level Indianapolis Center
07:45AM 37.4219 -84.4839 13° North 373 429 34,000 -300 Level Indianapolis Center
07:46AM 37.5206 -84.4533 14° North 364 419 33,500 -540 Descending Indianapolis Center
07:47AM 37.6183 -84.4247 13° North 361 415 33,000 -300 Descending Indianapolis Center
07:48AM 37.7072 -84.3969 14° North 331 381 33,000  Level Indianapolis Center
07:49AM 37.7861 -84.4058 355° North 281 323 33,000  Level Indianapolis Center
07:50AM 37.8622 -84.4403 340° North 285 328 33,000  Level Indianapolis Center
07:51AM 37.9511 -84.4803 340° North 290 334 33,000  Level Indianapolis Center
07:52AM 38.0289 -84.5169 340° North 295 339 33,000  Level Indianapolis Center
07:53AM 38.1081 -84.5533 340° North 301 346 33,000 -120 Level Indianapolis Center
07:54AM 38.1906 -84.5881 342° North 308 354 32,800 -540 Descending Indianapolis Center
07:55AM 38.2747 -84.6281 340° North 320 368 32,000 -420 Descending Indianapolis Center
07:56AM 38.3653 -84.6675 341° North 339 390 32,000  Level Indianapolis Center
07:57AM 38.4592 -84.7117 340° North 353 406 32,000  Level Indianapolis Center
07:58AM 38.5536 -84.7558 340° North 360 414 32,000  Level Indianapolis Center
07:59AM 38.6661 -84.8081 340° North 366 421 32,000  Level Indianapolis Center
08:00AM 38.7611 -84.8514 340° North 361 415 32,000 -240 Level Indianapolis Center
08:01AM 38.8428 -84.8908 339° North 359 413 31,600 -780 Descending Indianapolis Center
08:02AM 38.9375 -84.9344 340° North 361 415 30,500 -1,200 Descending Indianapolis Center
08:03AM 39.0503 -84.9883 340° North 359 413 29,200 -1,200 Descending Indianapolis Center
08:04AM 39.1467 -85.0319 341° North 363 418 28,100 -600 Descending Indianapolis Center
08:05AM 39.2403 -85.0767 340° North 376 433 28,000 -60 Descending Indianapolis Center
08:06AM 39.3411 -85.1244 340° North 381 438 28,000  Level Indianapolis Center
08:07AM 39.4400 -85.1717 340° North 376 433 28,000  Level Indianapolis Center
08:08AM 39.5414 -85.2194 340° North 382 440 28,000  Level Indianapolis Center
08:09AM 39.6589 -85.2758 340° North 381 438 28,000 -180 Level Indianapolis Center
08:10AM 39.7606 -85.3239 340° North 385 443 27,700 -780 Descending Indianapolis Center
08:11AM 39.8644 -85.3744 340° North 392 451 26,500 -840 Descending Indianapolis Center
08:12AM 39.9692 -85.4244 340° North 394 453 26,000 -300 Descending Indianapolis Center
08:13AM 40.0714 -85.4733 340° North 390 449 26,000 -60 Level Indianapolis Center
08:14AM 40.1739 -85.5228 340° North 388 447 25,900  Descending Indianapolis Center
08:15AM 40.2661 -85.5681 339° North 365 420 26,000 -840 Climbing Indianapolis Center
08:16AM 40.3597 -85.6156 339° North 357 411 24,300 -960 Descending Indianapolis Center
08:18AM 40.4642 -85.6642 341° North 355 409 24,000 -240 Descending Chicago Center
08:19AM 40.5597 -85.7058 342° North 360 414 23,800 -1,260 Descending Chicago Center
08:20AM 40.6556 -85.7425 344° North 360 414 21,500 -1,800 Descending Chicago Center
08:21AM 40.7383 -85.8131 327° Northwest 357 411 20,100 -780 Descending Chicago Center
08:22AM 40.8197 -85.8817 327° Northwest 349 402 20,000 -60 Descending Chicago Center
08:23AM 40.9031 -85.9689 322° Northwest 379 436 20,000  Level Chicago Center
08:24AM 40.9528 -86.0939 298° West 387 445 20,000  Level Chicago Center
08:25AM 41.0089 -86.2428 297° West 378 435 20,000 -120 Level Chicago Center
08:26AM 41.0572 -86.3692 297° West 378 435 19,800 -1,020 Descending Chicago Center
08:27AM 41.1011 -86.4897 296° West 375 432 17,900 -1,800 Descending Chicago Center
08:28AM 41.1444 -86.6028 297° West 355 409 16,200 -1,560 Descending Chicago Center
08:29AM 41.1883 -86.7211 296° West 354 407 14,700 -1,500 Descending Chicago Center
08:30AM 41.2317 -86.8347 297° West 351 404 13,200 -1,620 Descending Chicago Center
08:31AM 41.2803 -86.9706 296° West 344 396 11,500 -1,080 Descending Chicago Center
08:32AM 41.3208 -87.0731 298° West 320 368 11,000 -300 Descending Chicago Center
08:33AM 41.3597 -87.1808 296° West 320 368 11,000  Level Chicago Center
08:34AM 41.4333 -87.2667 319° Northwest 300 345 11,000  Level Chicago TRACON
08:35AM 41.4833 -87.3333 315° West 293 337 11,000 -180 Level Chicago TRACON
08:36AM 41.5500 -87.4167 317° Northwest 292 336 10,700 -660 Descending Chicago TRACON
08:37AM 41.6000 -87.4667 323° Northwest 284 327 9,800 -1,140 Descending Chicago TRACON
08:37AM 41.6150 -87.4822 322° Northwest 283 326 9,400 -1,260 Descending Chicago Center
08:38AM 41.6728 -87.5475 320° Northwest 277 319 8,200 -720 Descending Chicago Center
08:39AM 41.7283 -87.6114 319° Northwest 268 308 8,000 -540 Descending Chicago Center
08:40AM 41.7833 -87.6500 332° Northwest 272 313 7,300 -600 Descending Chicago TRACON
08:41AM 41.8500 -87.7000 331° Northwest 264 304 7,000 -180 Descending Chicago TRACON
08:42AM 41.9167 -87.7000 360° North 242 278 7,000 -180 Level Chicago TRACON
08:43AM 41.9667 -87.6833 14° North 210 242 6,700 -540 Descending Chicago TRACON
08:44AM 42.0333 -87.6500 20° North 213 245 6,000 -600 Descending Chicago TRACON
08:45AM 42.0667 -87.6000 48° Northeast 216 249 5,500 -780 Descending Chicago TRACON
08:46AM 42.1333 -87.5833 11° North 207 238 4,500 -900 Descending Chicago TRACON
08:46AM 42.1386 -87.6064 287° West 206 237 4,200 -360 Descending Chicago Center
08:47AM 42.1281 -87.6694 257° West 171 197 4,000 -180 Descending Chicago Center
08:48AM 42.1167 -87.7000 243° Southwest 164 189 4,000 -180 Level Chicago TRACON
08:49AM 42.0833 -87.7333 217° Southwest 162 186 3,800 -600 Descending Chicago TRACON
08:50AM 42.0500 -87.7833 228° Southwest 155 178 2,900 -900 Descending Chicago TRACON
08:51AM 42.0167 -87.8167 217° Southwest 153 176 2,100 -720 Descending Chicago TRACON
08:52AM 42.0000 -87.8500 236° Southwest 116 133 1,500 -660 Descending Chicago TRACON
08:53AM 41.9667 -87.8667 200° South 128 147 800 -720 Descending Chicago TRACON
08:55AM 41.9667 -87.9000 270° West  Level FlightAware Approximate